Teddy Meyer — WDF9635 — position and weather

sailwx.info

Track history (hours):
 
Tides and Currents Weather Stations Pressure Air Temp Water Temp Dewpoint Dewpoint Depression Visibility Wind Speed Wind Dir Waves Ship Positions

Teddy Meyer

Owner: LeBeouf Bros. Towing, LLC, Houma, LA. More information available from US FCC via Universal Licensing System and Coast Guard Vessel Documentation Center.

Last reported at 2015-Jun-11 08:33 UTC. Time now 2015-Jul-05 09:24 UTC.
Position N 30°42' W 091°21'.
Warning: this ship's position is 24 days out of date.

; draft 3 m.

MMSI: 367507220.

Date/timePositionNaut miles runAvg speedWind from/ knotsBaromVisibWave heightAir tempDewpointWater temp
2015-Jun-11 08:33N 30°42' W 091°21'5 5.0
2015-Jun-11 07:33N 30°38' W 091°17'4 3.7
2015-Jun-11 06:33N 30°34' W 091°17'3 3.0
2015-Jun-11 05:33N 30°32' W 091°15'1 1.4
2015-Jun-11 04:33N 30°31' W 091°15'3 3.1
2015-Jun-11 03:33N 30°29' W 091°12'5 4.5
2015-Jun-11 02:33N 30°24' W 091°12'4 4.2
2015-Jun-11 01:33N 30°20' W 091°13'1 1.4
2015-Jun-11 00:33N 30°21' W 091°12'0 0.0
2015-Jun-10 23:32N 30°21' W 091°12'0 0.0
2015-Jun-10 22:32N 30°21' W 091°12'2 1.7
2015-Jun-10 21:14N 30°19' W 091°12'3 2.9
2015-Jun-10 20:16N 30°17' W 091°10'33 3.3
2015-Jun-10 10:28N 30°02' W 090°36'8 4.0
2015-Jun-10 08:22N 29°60' W 090°27'  
2015-Jun-07 00:25N 30°19' W 091°09'6 6.6
2015-Jun-06 23:33N 30°23' W 091°14'8 8.1
2015-Jun-06 22:33N 30°31' W 091°14'6 5.6
2015-Jun-06 21:33N 30°35' W 091°19'11 9.7
2015-Jun-06 20:24N 30°46' W 091°23'  
Track history (hours):
 
Tides and Currents Weather Stations Pressure Air Temp Water Temp Dewpoint Dewpoint Depression Visibility Wind Speed Wind Dir Waves Ship Positions

Teddy Meyer

Owner: LeBeouf Bros. Towing, LLC, Houma, LA. More information available from US FCC via Universal Licensing System and Coast Guard Vessel Documentation Center.

Last reported at 2015-Jun-11 08:33 UTC. Time now 2015-Jul-05 09:24 UTC.
Position N 30°42' W 091°21'.
Warning: this ship's position is 24 days out of date.

; draft 3 m.

MMSI: 367507220.

Date/timePositionNaut miles runAvg speedWind from/ knotsBaromVisibWave heightAir tempDewpointWater temp
2015-Jun-11 08:33N 30°42' W 091°21'5 5.0
2015-Jun-11 07:33N 30°38' W 091°17'4 3.7
2015-Jun-11 06:33N 30°34' W 091°17'3 3.0
2015-Jun-11 05:33N 30°32' W 091°15'1 1.4
2015-Jun-11 04:33N 30°31' W 091°15'3 3.1
2015-Jun-11 03:33N 30°29' W 091°12'5 4.5
2015-Jun-11 02:33N 30°24' W 091°12'4 4.2
2015-Jun-11 01:33N 30°20' W 091°13'1 1.4
2015-Jun-11 00:33N 30°21' W 091°12'0 0.0
2015-Jun-10 23:32N 30°21' W 091°12'0 0.0
2015-Jun-10 22:32N 30°21' W 091°12'2 1.7
2015-Jun-10 21:14N 30°19' W 091°12'3 2.9
2015-Jun-10 20:16N 30°17' W 091°10'33 3.3
2015-Jun-10 10:28N 30°02' W 090°36'8 4.0
2015-Jun-10 08:22N 29°60' W 090°27'  
2015-Jun-07 00:25N 30°19' W 091°09'6 6.6
2015-Jun-06 23:33N 30°23' W 091°14'8 8.1
2015-Jun-06 22:33N 30°31' W 091°14'6 5.6
2015-Jun-06 21:33N 30°35' W 091°19'11 9.7
2015-Jun-06 20:24N 30°46' W 091°23'  

Dump ship's entire track history